Time;durP1;ratioP1;P1;durP2;ratioP2;P2;SDS_P1;SDS_P2;PMS_P1;PMS_P2;Temp;Humidity;BMP_temperature;BMP_pressure;BME280_temperature;BME280_humidity;BME280_pressure;Samples;Min_cycle;Max_cycle;Signal;HPM_P1;HPM_P2
2021/07/24 00:01:43;;;;;;;28.33;14.68;;;19.50;99.90;;;;;;5043721;28;20044;-78
2021/07/24 00:04:10;;;;;;;24.58;15.27;;;19.50;99.90;;;;;;5042020;28;20040;-76
2021/07/24 00:06:37;;;;;;;21.88;15.23;;;19.60;99.90;;;;;;5042129;28;20048;-77
2021/07/24 00:09:05;;;;;;;25.73;15.00;;;19.40;99.90;;;;;;5041910;28;20045;-77
2021/07/24 00:11:32;;;;;;;26.08;15.32;;;19.50;99.90;;;;;;5042401;28;20055;-78
2021/07/24 00:13:59;;;;;;;23.75;15.30;;;19.50;99.90;;;;;;5041520;28;20055;-79
2021/07/24 00:16:28;;;;;;;24.13;15.05;;;19.40;99.90;;;;;;5040844;28;20052;-76
2021/07/24 00:18:55;;;;;;;25.38;14.88;;;19.30;99.90;;;;;;5041434;28;20053;-77
2021/07/24 00:21:22;;;;;;;22.98;14.25;;;19.40;99.90;;;;;;5040206;28;21030;-79
2021/07/24 00:23:49;;;;;;;33.40;15.73;;;19.40;99.90;;;;;;5042802;28;20044;-75
2021/07/24 00:26:16;;;;;;;24.85;15.05;;;19.30;99.90;;;;;;5042116;28;20052;-75
2021/07/24 00:28:43;;;;;;;21.98;14.85;;;19.20;99.90;;;;;;5042404;28;20048;-75
2021/07/24 00:31:10;;;;;;;24.08;14.60;;;19.20;99.90;;;;;;5042800;28;20087;-75
2021/07/24 00:33:39;;;;;;;23.67;14.75;;;19.10;99.90;;;;;;5041157;28;20093;-76
2021/07/24 00:36:06;;;;;;;28.02;16.27;;;19.10;99.90;;;;;;5040679;28;20060;-76
2021/07/24 00:38:33;;;;;;;22.73;15.15;;;19.10;99.90;;;;;;5040972;28;20040;-78
2021/07/24 00:41:02;;;;;;;21.40;15.43;;;19.10;99.90;;;;;;5040592;28;20121;-76
2021/07/24 00:43:31;;;;;;;27.13;16.20;;;19.10;99.90;;;;;;5040372;28;20105;-75
2021/07/24 00:45:58;;;;;;;27.48;16.25;;;19.10;99.90;;;;;;5041536;28;20052;-78
2021/07/24 00:48:25;;;;;;;26.98;15.98;;;19.10;99.90;;;;;;5038753;28;20048;-76
2021/07/24 00:50:57;;;;;;;26.17;15.68;;;19.00;99.90;;;;;;5039031;28;20094;-78
2021/07/24 00:53:31;;;;;;;24.90;16.88;;;19.10;99.90;;;;;;5038019;28;20128;-79
2021/07/24 00:55:58;;;;;;;25.65;16.73;;;19.10;99.90;;;;;;5040104;28;20060;-76
2021/07/24 00:58:27;;;;;;;27.20;16.30;;;18.90;99.90;;;;;;5038615;28;20071;-76
2021/07/24 01:00:54;;;;;;;29.58;16.08;;;19.00;99.90;;;;;;5038638;28;20447;-78
2021/07/24 01:03:22;;;;;;;25.73;15.77;;;18.80;99.90;;;;;;5039824;28;20086;-77
2021/07/24 01:05:52;;;;;;;25.23;15.65;;;18.80;99.90;;;;;;5040745;28;20188;-77
2021/07/24 01:08:21;;;;;;;30.10;16.85;;;18.80;99.90;;;;;;5038085;28;20044;-79
2021/07/24 01:10:50;;;;;;;23.55;15.82;;;18.80;99.90;;;;;;5038783;28;20110;-76
2021/07/24 01:13:18;;;;;;;29.52;17.13;;;18.80;99.90;;;;;;5038573;28;20524;-76
2021/07/24 01:15:46;;;;;;;27.73;15.40;;;18.60;99.90;;;;;;5040388;28;20244;-76
2021/07/24 01:18:14;;;;;;;25.17;15.43;;;18.60;99.90;;;;;;5042902;28;20051;-77
2021/07/24 01:20:42;;;;;;;23.98;15.40;;;18.60;99.90;;;;;;5044559;28;20570;-76
2021/07/24 01:23:12;;;;;;;24.65;15.27;;;18.50;99.90;;;;;;5040650;28;20080;-78
2021/07/24 01:25:43;;;;;;;26.15;15.50;;;18.60;99.90;;;;;;5043176;28;20055;-76
2021/07/24 01:28:10;;;;;;;25.95;15.88;;;18.60;99.90;;;;;;5037320;28;20050;-78
2021/07/24 01:30:38;;;;;;;22.80;15.30;;;18.50;99.90;;;;;;5039680;28;20045;-74
2021/07/24 01:33:05;;;;;;;26.48;16.58;;;18.60;99.90;;;;;;5040376;28;20052;-77
2021/07/24 01:35:32;;;;;;;34.35;15.75;;;18.60;99.90;;;;;;5037962;28;20559;-77
2021/07/24 01:37:59;;;;;;;29.65;16.50;;;18.30;99.90;;;;;;5038760;28;20094;-78
2021/07/24 01:40:28;;;;;;;26.83;16.77;;;18.50;99.90;;;;;;5037236;28;20065;-77
2021/07/24 01:42:58;;;;;;;25.05;16.83;;;18.50;99.90;;;;;;5037979;28;20048;-77
2021/07/24 01:45:26;;;;;;;24.27;15.55;;;18.40;99.90;;;;;;5038237;28;21383;-79
2021/07/24 01:47:53;;;;;;;27.17;17.20;;;18.30;99.90;;;;;;5037287;28;20139;-76
2021/07/24 01:53:06;;;;;;;28.25;16.45;;;18.40;99.90;;;;;;5038729;28;20083;-77
2021/07/24 01:55:40;;;;;;;25.65;15.70;;;18.30;99.90;;;;;;5037698;28;20420;-77
2021/07/24 01:58:09;;;;;;;26.48;16.10;;;18.20;99.90;;;;;;5036980;28;20546;-76
2021/07/24 02:00:38;;;;;;;23.92;16.27;;;18.20;99.90;;;;;;5037320;28;20044;-77
2021/07/24 02:03:09;;;;;;;27.15;16.25;;;18.20;99.90;;;;;;5038235;28;20048;-77
2021/07/24 02:05:47;;;;;;;25.95;17.13;;;18.10;99.90;;;;;;5039166;28;20052;-76
2021/07/24 02:08:20;;;;;;;23.75;16.20;;;18.20;99.90;;;;;;5037190;28;20044;-79
2021/07/24 02:10:49;;;;;;;29.42;16.33;;;18.20;99.90;;;;;;5036931;28;20063;-76
2021/07/24 02:13:17;;;;;;;25.58;16.73;;;18.20;99.90;;;;;;5036821;28;20056;-76
2021/07/24 02:15:44;;;;;;;24.27;16.42;;;18.10;99.90;;;;;;5037603;28;20263;-76
2021/07/24 02:18:15;;;;;;;25.98;17.25;;;18.00;99.90;;;;;;5035167;28;20516;-76
2021/07/24 02:20:45;;;;;;;25.67;16.83;;;18.00;99.90;;;;;;5039053;28;20045;-76
2021/07/24 02:23:12;;;;;;;29.20;17.23;;;17.90;99.90;;;;;;5036683;28;20045;-79
2021/07/24 02:25:39;;;;;;;33.17;18.63;;;17.90;99.90;;;;;;5038341;28;20748;-76
2021/07/24 02:28:08;;;;;;;28.20;17.60;;;18.00;99.90;;;;;;5038083;28;20224;-76
2021/07/24 02:30:35;;;;;;;25.90;17.02;;;18.00;99.90;;;;;;5039185;28;20110;-79
2021/07/24 02:33:02;;;;;;;28.90;16.48;;;18.00;99.90;;;;;;5038445;28;20052;-76
2021/07/24 02:35:29;;;;;;;29.83;18.08;;;17.90;99.90;;;;;;5037343;28;20492;-78
2021/07/24 02:37:56;;;;;;;24.98;17.05;;;17.90;99.90;;;;;;5037051;28;20064;-77
2021/07/24 02:40:24;;;;;;;29.30;17.25;;;18.00;99.90;;;;;;5036197;28;20076;-76
2021/07/24 02:42:51;;;;;;;27.42;18.50;;;18.00;99.90;;;;;;5037535;28;20056;-77
2021/07/24 02:45:20;;;;;;;26.92;16.58;;;17.90;99.90;;;;;;5038870;28;20197;-76
2021/07/24 02:47:47;;;;;;;26.50;17.40;;;17.90;99.90;;;;;;5040320;28;20518;-76
2021/07/24 02:50:14;;;;;;;26.25;17.05;;;17.90;99.90;;;;;;5041037;28;20048;-76
2021/07/24 02:52:41;;;;;;;25.80;17.55;;;17.90;99.90;;;;;;5041214;28;20056;-77
2021/07/24 02:55:09;;;;;;;27.23;17.40;;;17.90;99.90;;;;;;5041087;28;20057;-76
2021/07/24 02:57:36;;;;;;;29.45;18.00;;;17.90;99.90;;;;;;5040508;28;20105;-76
2021/07/24 03:00:04;;;;;;;33.15;19.17;;;17.90;99.90;;;;;;5041650;28;20052;-76
2021/07/24 03:02:32;;;;;;;29.42;17.65;;;17.70;99.90;;;;;;5041176;28;20441;-78
2021/07/24 03:04:59;;;;;;;27.70;18.70;;;17.70;99.90;;;;;;5040884;28;20055;-77
2021/07/24 03:07:26;;;;;;;25.88;16.10;;;17.80;99.90;;;;;;5041334;28;20139;-76
2021/07/24 03:09:53;;;;;;;26.80;18.30;;;17.70;99.90;;;;;;5040350;28;20168;-77
2021/07/24 03:12:20;;;;;;;28.00;18.55;;;17.70;99.90;;;;;;5040603;28;20052;-76
2021/07/24 03:14:50;;;;;;;27.52;18.58;;;17.80;99.90;;;;;;5041765;28;20052;-76
2021/07/24 03:17:17;;;;;;;30.25;18.67;;;17.80;99.90;;;;;;5041103;28;20064;-78
2021/07/24 03:19:46;;;;;;;26.55;18.05;;;17.60;99.90;;;;;;5040707;28;20068;-76
2021/07/24 03:22:13;;;;;;;29.30;19.35;;;17.50;99.90;;;;;;5039571;28;20063;-76
2021/07/24 03:24:40;;;;;;;33.30;18.88;;;17.50;99.90;;;;;;5039693;28;20563;-77
2021/07/24 03:27:07;;;;;;;31.50;19.15;;;17.50;99.90;;;;;;5039671;28;20052;-78
2021/07/24 03:29:34;;;;;;;32.45;20.52;;;17.50;99.90;;;;;;5039614;28;20044;-76
2021/07/24 03:32:01;;;;;;;32.05;20.17;;;17.50;99.90;;;;;;5040272;28;20102;-79
2021/07/24 03:34:28;;;;;;;32.58;20.77;;;17.40;99.90;;;;;;5039572;28;20513;-76
2021/07/24 03:36:56;;;;;;;32.95;19.13;;;17.40;99.90;;;;;;5042337;28;20045;-77
2021/07/24 03:39:23;;;;;;;31.70;20.05;;;17.40;99.90;;;;;;5045370;28;20465;-75
2021/07/24 03:41:50;;;;;;;29.42;19.50;;;17.40;99.90;;;;;;5046049;28;20048;-77
2021/07/24 03:44:17;;;;;;;33.10;19.40;;;17.30;99.90;;;;;;5046081;28;20520;-75
2021/07/24 03:46:44;;;;;;;30.80;19.30;;;17.20;99.90;;;;;;5046023;28;20048;-76
2021/07/24 03:49:11;;;;;;;26.88;18.40;;;17.20;99.90;;;;;;5044861;28;20090;-76
2021/07/24 03:51:39;;;;;;;30.75;19.42;;;17.10;99.90;;;;;;5045118;28;20086;-79
2021/07/24 03:54:07;;;;;;;30.38;19.13;;;17.20;99.90;;;;;;5045206;28;20591;-79
2021/07/24 03:56:34;;;;;;;30.85;19.08;;;17.20;99.90;;;;;;5045439;28;20052;-79
2021/07/24 03:59:01;;;;;;;30.67;18.98;;;17.10;99.90;;;;;;5044181;28;20084;-76
2021/07/24 04:01:29;;;;;;;26.30;18.02;;;17.20;99.90;;;;;;5045135;28;20692;-77
2021/07/24 04:03:56;;;;;;;29.60;19.15;;;17.20;99.90;;;;;;5046394;28;20056;-76
2021/07/24 04:06:26;;;;;;;28.45;19.35;;;17.20;99.90;;;;;;5045908;28;20060;-76
2021/07/24 04:08:56;;;;;;;28.25;18.73;;;17.30;99.90;;;;;;5043952;28;20698;-76
2021/07/24 04:11:26;;;;;;;28.40;18.10;;;17.40;99.90;;;;;;5044608;28;20125;-76
2021/07/24 04:13:53;;;;;;;28.60;18.10;;;17.30;99.90;;;;;;5045140;28;20143;-77
2021/07/24 04:16:20;;;;;;;31.10;18.67;;;17.30;99.90;;;;;;5045146;28;20040;-76
2021/07/24 04:18:48;;;;;;;30.15;17.70;;;17.40;99.90;;;;;;5044402;28;20126;-76
2021/07/24 04:21:15;;;;;;;28.95;18.63;;;17.40;99.90;;;;;;5044769;28;20076;-76
2021/07/24 04:23:42;;;;;;;29.40;18.85;;;17.40;99.90;;;;;;5044515;28;20661;-76
2021/07/24 04:26:09;;;;;;;29.90;18.52;;;17.30;99.90;;;;;;5044798;28;20102;-78
2021/07/24 04:28:37;;;;;;;29.73;18.42;;;17.40;99.90;;;;;;5043835;28;20048;-78
2021/07/24 04:31:04;;;;;;;29.23;18.10;;;17.50;99.90;;;;;;5047878;28;20098;-77
2021/07/24 04:33:32;;;;;;;31.23;18.35;;;17.50;99.90;;;;;;5045786;28;20084;-76
2021/07/24 04:35:59;;;;;;;29.90;18.33;;;17.60;99.90;;;;;;5045135;28;20056;-76
2021/07/24 04:38:25;;;;;;;27.77;18.10;;;17.70;99.90;;;;;;5044126;28;20053;-76
2021/07/24 04:40:52;;;;;;;27.83;18.13;;;17.80;99.90;;;;;;5044776;28;20497;-76
2021/07/24 04:43:20;;;;;;;31.98;18.92;;;18.00;99.90;;;;;;5045370;28;20101;-78
2021/07/24 04:45:48;;;;;;;32.42;18.20;;;17.90;99.90;;;;;;5045417;28;20131;-76
2021/07/24 04:48:16;;;;;;;29.83;17.55;;;18.10;99.90;;;;;;5044961;28;20108;-76
2021/07/24 04:50:45;;;;;;;34.47;17.73;;;18.20;99.90;;;;;;5043260;28;20126;-77
2021/07/24 04:53:13;;;;;;;29.90;17.88;;;18.30;99.90;;;;;;5044194;28;20044;-76
2021/07/24 04:55:41;;;;;;;29.77;18.10;;;18.30;99.90;;;;;;5045315;28;20475;-76
2021/07/24 04:58:09;;;;;;;27.48;18.05;;;18.40;99.90;;;;;;5043697;28;20056;-78
2021/07/24 05:00:38;;;;;;;32.58;18.95;;;18.40;99.90;;;;;;5044213;28;20516;-78
2021/07/24 05:03:07;;;;;;;27.70;18.58;;;18.40;99.90;;;;;;5044782;28;20501;-77
2021/07/24 05:05:35;;;;;;;28.58;17.58;;;18.40;99.90;;;;;;5044510;28;20044;-76
2021/07/24 05:08:04;;;;;;;28.95;17.73;;;18.30;99.90;;;;;;5038921;28;20044;-76
2021/07/24 05:10:31;;;;;;;26.60;18.02;;;18.40;99.90;;;;;;5041867;28;20070;-78
2021/07/24 05:12:58;;;;;;;26.35;18.42;;;18.40;99.90;;;;;;5044148;28;20086;-76
2021/07/24 05:15:25;;;;;;;31.95;17.45;;;18.40;99.90;;;;;;5045539;28;20719;-77
2021/07/24 05:17:52;;;;;;;29.70;17.23;;;18.30;99.90;;;;;;5044511;28;20094;-76
2021/07/24 05:20:21;;;;;;;24.70;16.30;;;18.30;99.90;;;;;;5045370;28;20043;-78
2021/07/24 05:22:48;;;;;;;30.85;17.83;;;18.40;99.90;;;;;;5044221;28;20101;-77
2021/07/24 05:25:15;;;;;;;29.38;18.83;;;18.40;99.90;;;;;;5045123;28;20447;-78
2021/07/24 05:27:42;;;;;;;28.58;18.67;;;18.50;99.90;;;;;;5045747;28;20044;-69
2021/07/24 05:30:10;;;;;;;29.42;18.30;;;18.50;99.90;;;;;;5043685;28;20045;-69
2021/07/24 05:32:37;;;;;;;29.35;17.63;;;18.50;99.90;;;;;;5043663;28;20052;-70
2021/07/24 05:35:05;;;;;;;31.88;19.23;;;18.60;99.90;;;;;;5048098;28;20157;-69
2021/07/24 05:37:33;;;;;;;27.00;18.00;;;18.60;99.90;;;;;;5046779;28;20052;-69
2021/07/24 05:40:00;;;;;;;29.73;18.52;;;18.60;99.90;;;;;;5049150;28;20092;-69
2021/07/24 05:42:27;;;;;;;29.17;18.05;;;18.70;99.90;;;;;;5047563;28;20080;-69
2021/07/24 05:44:54;;;;;;;27.15;17.40;;;18.70;99.90;;;;;;5049335;28;20060;-69
2021/07/24 05:47:21;;;;;;;25.60;16.80;;;18.90;99.90;;;;;;5049266;28;20048;-69
2021/07/24 05:49:48;;;;;;;24.98;16.00;;;19.00;99.90;;;;;;5042548;28;20147;-70
2021/07/24 05:52:15;;;;;;;31.50;18.45;;;19.20;99.90;;;;;;5042909;28;20083;-74
2021/07/24 05:54:44;;;;;;;28.83;17.45;;;19.30;99.90;;;;;;5049762;28;20102;-78
2021/07/24 05:57:10;;;;;;;26.98;17.45;;;19.30;99.90;;;;;;5051715;28;20541;-78
2021/07/24 05:59:38;;;;;;;23.83;17.33;;;19.50;99.90;;;;;;5050387;28;20090;-76
2021/07/24 06:02:06;;;;;;;28.90;17.33;;;19.60;99.90;;;;;;5049407;28;20049;-77
2021/07/24 06:04:33;;;;;;;26.10;17.48;;;19.70;99.90;;;;;;5047085;28;20501;-79
2021/07/24 06:07:01;;;;;;;28.58;18.10;;;19.80;99.90;;;;;;5048871;28;20582;-78
2021/07/24 06:09:28;;;;;;;30.50;18.67;;;19.90;99.90;;;;;;5048268;28;20106;-76
2021/07/24 06:11:57;;;;;;;26.00;17.73;;;20.10;99.90;;;;;;5050747;28;20501;-78
2021/07/24 06:14:25;;;;;;;30.35;18.30;;;20.10;99.90;;;;;;5045603;28;20094;-78
2021/07/24 06:16:52;;;;;;;27.35;18.05;;;20.20;99.90;;;;;;5042167;28;20102;-78
2021/07/24 06:19:19;;;;;;;26.95;18.73;;;20.40;99.90;;;;;;5040860;28;20667;-78
2021/07/24 06:21:47;;;;;;;35.47;19.40;;;20.50;99.90;;;;;;5045420;28;20086;-78
2021/07/24 06:24:15;;;;;;;27.05;17.13;;;20.70;99.90;;;;;;5048171;28;20133;-77
2021/07/24 06:26:42;;;;;;;26.73;17.23;;;20.80;99.90;;;;;;5046759;28;20072;-77
2021/07/24 06:29:11;;;;;;;24.45;16.83;;;20.90;99.90;;;;;;5047725;28;20098;-77
2021/07/24 06:31:38;;;;;;;26.00;16.45;;;21.10;99.90;;;;;;5052882;28;20041;-79
2021/07/24 06:34:05;;;;;;;27.85;17.02;;;21.20;99.90;;;;;;5053051;28;20145;-76
2021/07/24 06:36:33;;;;;;;26.27;17.40;;;21.40;99.90;;;;;;5053363;28;20051;-76
2021/07/24 06:39:00;;;;;;;26.90;17.38;;;21.50;99.90;;;;;;5053182;28;20044;-77
2021/07/24 06:41:30;;;;;;;23.80;15.48;;;21.70;99.90;;;;;;5052977;28;20048;-75
2021/07/24 06:43:57;;;;;;;26.27;16.60;;;21.90;99.90;;;;;;5054386;28;20065;-77
2021/07/24 06:46:25;;;;;;;23.45;15.77;;;22.00;99.90;;;;;;5053497;28;20052;-78
2021/07/24 06:48:52;;;;;;;25.60;16.83;;;22.10;99.90;;;;;;5051950;28;20386;-76
2021/07/24 06:51:19;;;;;;;28.67;16.30;;;22.20;99.90;;;;;;5050666;28;20045;-76
2021/07/24 06:53:46;;;;;;;24.27;14.50;;;22.40;99.90;;;;;;5053080;28;20088;-76
2021/07/24 06:56:13;;;;;;;22.98;15.43;;;22.40;99.90;;;;;;5052249;28;20412;-76
2021/07/24 06:58:40;;;;;;;24.70;15.68;;;22.60;99.90;;;;;;5052193;28;20558;-76
2021/07/24 07:01:08;;;;;;;22.40;15.48;;;22.50;99.90;;;;;;5053083;28;20585;-76
2021/07/24 07:03:36;;;;;;;22.55;15.48;;;22.50;99.90;;;;;;5052596;28;20045;-79
2021/07/24 07:06:06;;;;;;;22.92;15.13;;;22.50;99.90;;;;;;5052395;28;20090;-78
2021/07/24 07:08:33;;;;;;;25.60;16.10;;;22.60;99.90;;;;;;5051511;28;20041;-78
2021/07/24 07:11:04;;;;;;;21.38;15.02;;;22.50;99.90;;;;;;5052300;28;20125;-76
2021/07/24 07:13:31;;;;;;;26.50;15.93;;;22.50;99.90;;;;;;5051975;28;20091;-77
2021/07/24 07:15:59;;;;;;;23.70;15.13;;;22.60;99.90;;;;;;5052424;28;20130;-76
2021/07/24 07:18:26;;;;;;;24.20;16.30;;;22.70;99.90;;;;;;5050457;28;20052;-78
2021/07/24 07:20:54;;;;;;;22.23;15.35;;;22.70;99.90;;;;;;5052446;28;20053;-76
2021/07/24 07:23:21;;;;;;;21.48;15.07;;;22.60;99.90;;;;;;5050958;28;20056;-79
2021/07/24 07:25:48;;;;;;;24.80;15.68;;;22.60;99.90;;;;;;5052863;28;20048;-78
2021/07/24 07:28:15;;;;;;;28.25;13.93;;;22.70;99.90;;;;;;5051010;28;20083;-77
2021/07/24 07:30:42;;;;;;;26.38;15.18;;;22.80;99.90;;;;;;5050851;28;20080;-78
2021/07/24 07:33:09;;;;;;;24.63;14.77;;;22.80;99.90;;;;;;5052387;28;20505;-79
2021/07/24 07:35:36;;;;;;;19.05;13.25;;;22.90;99.90;;;;;;5051672;28;20447;-80
2021/07/24 07:38:04;;;;;;;21.70;12.73;;;23.10;99.90;;;;;;5050888;28;20140;-78
2021/07/24 07:40:31;;;;;;;21.73;12.57;;;23.10;99.90;;;;;;5051785;28;20114;-77
2021/07/24 07:42:59;;;;;;;17.88;12.85;;;23.30;99.90;;;;;;5051974;28;20056;-77
2021/07/24 07:45:26;;;;;;;17.80;12.95;;;23.20;99.90;;;;;;5051449;28;20052;-78
2021/07/24 07:47:53;;;;;;;18.08;11.90;;;23.40;99.90;;;;;;5051557;28;20071;-76
2021/07/24 07:50:20;;;;;;;17.55;12.05;;;23.60;99.90;;;;;;5051168;28;20056;-78
2021/07/24 07:52:47;;;;;;;18.88;12.52;;;23.70;99.90;;;;;;5052054;28;20574;-77
2021/07/24 07:55:15;;;;;;;17.55;12.38;;;24.00;99.90;;;;;;5054874;28;20048;-76
2021/07/24 07:57:42;;;;;;;16.98;12.10;;;24.20;99.90;;;;;;5054281;28;20295;-77
2021/07/24 08:00:10;;;;;;;18.05;11.68;;;24.30;99.90;;;;;;5051831;28;20052;-79
2021/07/24 08:02:37;;;;;;;17.45;11.40;;;24.60;99.90;;;;;;5050847;28;20102;-77
2021/07/24 08:05:05;;;;;;;20.50;12.82;;;24.60;99.90;;;;;;5052323;28;20044;-77
2021/07/24 08:07:32;;;;;;;19.27;12.50;;;24.70;99.90;;;;;;5051124;28;20102;-77
2021/07/24 08:09:59;;;;;;;21.33;13.40;;;24.50;99.90;;;;;;5054152;28;20048;-76
2021/07/24 08:12:28;;;;;;;17.98;12.13;;;24.50;99.90;;;;;;5051942;28;20045;-76
2021/07/24 08:14:56;;;;;;;19.40;11.38;;;24.60;99.90;;;;;;5052150;28;20052;-77
2021/07/24 08:17:23;;;;;;;19.40;13.13;;;24.70;99.90;;;;;;5051717;28;20052;-78
2021/07/24 08:19:50;;;;;;;16.73;11.68;;;24.90;99.90;;;;;;5051010;28;20052;-76
2021/07/24 08:22:17;;;;;;;18.25;11.95;;;25.20;99.90;;;;;;5051682;28;20060;-75
2021/07/24 08:24:44;;;;;;;14.35;10.75;;;25.10;99.90;;;;;;5052167;28;20475;-78
2021/07/24 08:27:11;;;;;;;16.58;12.20;;;25.10;99.90;;;;;;5050370;28;20056;-78
2021/07/24 08:29:40;;;;;;;17.27;11.70;;;25.30;99.90;;;;;;5049580;28;20501;-76
2021/07/24 08:32:09;;;;;;;15.43;11.60;;;25.30;99.90;;;;;;5050923;28;20044;-76
2021/07/24 08:34:36;;;;;;;17.17;10.57;;;25.60;99.90;;;;;;5050150;28;20056;-76
2021/07/24 08:37:06;;;;;;;15.32;11.23;;;25.90;99.90;;;;;;5051149;28;20394;-76
2021/07/24 08:39:35;;;;;;;16.50;10.77;;;26.30;99.90;;;;;;5050233;28;20049;-76
2021/07/24 08:42:02;;;;;;;21.52;11.32;;;26.60;99.90;;;;;;5050415;28;20076;-77
2021/07/24 08:44:29;;;;;;;17.65;11.88;;;26.90;99.90;;;;;;5051472;28;20053;-77
2021/07/24 08:46:58;;;;;;;18.10;11.75;;;27.10;99.90;;;;;;5052356;28;20201;-78
2021/07/24 08:49:25;;;;;;;21.00;11.75;;;26.80;99.90;;;;;;5051435;28;20048;-79
2021/07/24 08:51:53;;;;;;;19.20;11.27;;;26.80;99.90;;;;;;5052503;28;20199;-77
2021/07/24 08:54:20;;;;;;;15.40;10.75;;;27.40;99.90;;;;;;5052745;28;20105;-76
2021/07/24 08:56:49;;;;;;;16.15;11.15;;;28.20;99.90;;;;;;5052444;28;20044;-76
2021/07/24 08:59:18;;;;;;;16.92;11.75;;;28.90;99.90;;;;;;5049068;28;20049;-76
2021/07/24 09:01:52;;;;;;;15.02;10.82;;;29.60;99.90;;;;;;5052533;28;20062;-76
2021/07/24 09:04:22;;;;;;;20.13;11.52;;;29.70;99.90;;;;;;5048794;28;20575;-76
2021/07/24 09:06:54;;;;;;;14.88;10.80;;;30.00;99.90;;;;;;5051975;28;20059;-76
2021/07/24 09:09:21;;;;;;;15.45;10.90;;;29.80;99.90;;;;;;5049045;28;20106;-76
2021/07/24 09:11:49;;;;;;;17.67;11.63;;;29.90;99.90;;;;;;5050047;28;20114;-75
2021/07/24 09:14:17;;;;;;;16.90;10.95;;;30.60;99.90;;;;;;5050516;28;20091;-77
2021/07/24 09:16:45;;;;;;;17.08;10.35;;;31.10;99.90;;;;;;5049639;28;20389;-76
2021/07/24 09:19:13;;;;;;;16.92;11.57;;;31.20;99.90;;;;;;5049701;28;20106;-76
2021/07/24 09:21:41;;;;;;;16.25;11.10;;;31.10;99.90;;;;;;5050968;28;20121;-76
2021/07/24 09:24:19;;;;;;;15.00;11.43;;;30.80;99.90;;;;;;5051491;28;20076;-79
2021/07/24 09:26:47;;;;;;;19.23;9.93;;;30.90;99.90;;;;;;5050481;28;20084;-79
2021/07/24 09:29:15;;;;;;;13.32;10.07;;;31.40;99.90;;;;;;5050722;28;20753;-79
2021/07/24 09:31:43;;;;;;;14.93;10.07;;;32.10;99.90;;;;;;5050918;28;20056;-77
2021/07/24 09:34:10;;;;;;;24.20;9.38;;;32.50;99.90;;;;;;5050036;28;21785;-80
2021/07/24 09:36:39;;;;;;;13.20;9.32;;;33.50;99.90;;;;;;5051337;28;20052;-77
2021/07/24 09:39:14;;;;;;;10.38;8.55;;;33.40;99.90;;;;;;5050213;28;20094;-78
2021/07/24 09:41:43;;;;;;;14.98;9.70;;;33.60;98.30;;;;;;5051501;28;20102;-78
2021/07/24 09:44:10;;;;;;;13.00;9.50;;;33.50;98.10;;;;;;5050712;28;20075;-78
2021/07/24 09:46:38;;;;;;;12.77;9.75;;;33.80;96.90;;;;;;5051073;28;20547;-77
2021/07/24 09:49:13;;;;;;;14.80;10.70;;;33.90;96.70;;;;;;5051188;28;20040;-80
2021/07/24 09:51:41;;;;;;;13.07;9.98;;;33.50;96.60;;;;;;5051408;28;20132;-79
2021/07/24 09:54:27;;;;;;;14.93;9.90;;;33.90;96.10;;;;;;5050993;28;20137;-77
2021/07/24 09:56:54;;;;;;;14.90;9.50;;;34.90;94.90;;;;;;5046412;28;20048;-77
2021/07/24 09:59:24;;;;;;;11.40;9.02;;;35.90;93.80;;;;;;5049498;28;20041;-79
2021/07/24 10:01:58;;;;;;;11.00;8.90;;;35.40;92.50;;;;;;5047426;28;20052;-79
2021/07/24 10:04:30;;;;;;;11.30;9.02;;;35.50;91.70;;;;;;5044628;28;20044;-78
2021/07/24 10:06:59;;;;;;;11.60;9.00;;;34.80;90.70;;;;;;5046077;28;20048;-79
2021/07/24 10:09:30;;;;;;;11.93;8.85;;;35.00;91.30;;;;;;5043920;28;20062;-80
2021/07/24 10:11:58;;;;;;;13.35;9.07;;;34.80;89.50;;;;;;5044988;28;20239;-77
2021/07/24 10:14:25;;;;;;;11.63;8.50;;;34.60;88.60;;;;;;5044195;28;20094;-78
2021/07/24 10:16:54;;;;;;;12.88;9.40;;;35.00;88.50;;;;;;5043916;28;20124;-78
2021/07/24 10:19:26;;;;;;;11.27;8.63;;;34.50;86.50;;;;;;5042281;28;20045;-77
2021/07/24 10:21:55;;;;;;;11.70;8.40;;;34.50;85.50;;;;;;5043218;28;20049;-77
2021/07/24 10:24:22;;;;;;;15.07;9.18;;;35.60;83.80;;;;;;5044987;28;20076;-77
2021/07/24 10:26:55;;;;;;;15.18;9.02;;;35.20;84.20;;;;;;5042953;28;20513;-80
2021/07/24 10:29:28;;;;;;;11.15;8.40;;;35.40;83.30;;;;;;5042258;28;20083;-78
2021/07/24 10:32:01;;;;;;;12.73;8.82;;;35.90;81.00;;;;;;5046128;28;20072;-79
2021/07/24 10:34:31;;;;;;;12.27;8.75;;;34.70;80.10;;;;;;5043431;28;20101;-77
2021/07/24 10:37:00;;;;;;;14.13;8.40;;;34.60;81.70;;;;;;5042352;28;20204;-77
2021/07/24 10:39:27;;;;;;;11.15;8.13;;;34.60;82.40;;;;;;5041530;28;20130;-77
2021/07/24 10:42:09;;;;;;;10.85;7.88;;;33.90;80.30;;;;;;5044052;28;20510;-79
2021/07/24 10:44:38;;;;;;;12.13;8.55;;;33.50;80.40;;;;;;5042906;28;20657;-78
2021/07/24 10:47:09;;;;;;;11.75;8.35;;;33.00;81.20;;;;;;5042206;28;20125;-79
2021/07/24 10:50:00;;;;;;;12.32;9.18;;;32.70;83.00;;;;;;5043039;28;20052;-77
2021/07/24 10:52:27;;;;;;;12.15;9.13;;;32.10;83.50;;;;;;5045077;28;20048;-77
2021/07/24 10:55:13;;;;;;;16.05;9.20;;;31.60;85.10;;;;;;5044406;28;20083;-79
2021/07/24 10:58:06;;;;;;;12.53;9.10;;;31.20;86.10;;;;;;5046058;28;20467;-78
2021/07/24 11:00:53;;;;;;;14.05;8.88;;;31.00;87.20;;;;;;5043386;28;20303;-77
2021/07/24 11:03:34;;;;;;;15.73;8.48;;;30.80;87.60;;;;;;5043332;28;20489;-77
2021/07/24 11:06:20;;;;;;;13.88;8.63;;;30.50;89.10;;;;;;5043413;28;20166;-78
2021/07/24 11:09:10;;;;;;;13.68;8.55;;;30.10;89.10;;;;;;5048869;28;20049;-79
2021/07/24 11:11:42;;;;;;;15.88;8.75;;;30.00;91.20;;;;;;5054015;28;20051;-79
2021/07/24 11:14:49;;;;;;;13.95;8.55;;;29.80;90.60;;;;;;5051809;28;20080;-77
2021/07/24 11:17:17;;;;;;;10.90;8.43;;;29.50;90.80;;;;;;5052367;28;20253;-78
2021/07/24 11:20:07;;;;;;;13.07;8.63;;;29.60;91.10;;;;;;5054136;28;21098;-78
2021/07/24 11:22:36;;;;;;;16.10;9.13;;;29.70;91.80;;;;;;5052387;28;20159;-77
2021/07/24 11:25:31;;;;;;;13.18;9.20;;;29.60;92.20;;;;;;5051215;28;20056;-77
2021/07/24 11:27:59;;;;;;;14.10;9.13;;;29.80;93.60;;;;;;5050473;28;20051;-79
2021/07/24 11:30:27;;;;;;;14.35;8.80;;;29.50;92.90;;;;;;5050481;28;20048;-77
2021/07/24 11:32:56;;;;;;;13.27;8.95;;;29.60;92.30;;;;;;5050533;28;20142;-77
2021/07/24 11:35:28;;;;;;;13.57;8.95;;;29.70;92.30;;;;;;5050692;28;20120;-77
2021/07/24 11:37:55;;;;;;;12.68;8.70;;;29.80;91.70;;;;;;5049071;28;20425;-80
2021/07/24 11:40:23;;;;;;;12.05;7.68;;;29.70;93.20;;;;;;5045459;28;20044;-71
2021/07/24 11:43:02;;;;;;;17.33;8.60;;;30.00;93.40;;;;;;5046277;28;20118;-81
2021/07/24 11:45:32;;;;;;;14.63;8.75;;;30.10;91.80;;;;;;5050183;28;20444;-75
2021/07/24 11:48:12;;;;;;;13.55;8.60;;;30.30;90.30;;;;;;5050278;28;20044;-75
2021/07/24 11:50:40;;;;;;;11.05;8.25;;;30.50;89.00;;;;;;5052938;28;20041;-78
2021/07/24 11:53:07;;;;;;;12.70;8.30;;;30.80;88.90;;;;;;5051785;28;20080;-76
2021/07/24 11:55:35;;;;;;;15.23;8.18;;;30.80;87.90;;;;;;5050482;28;20090;-76
2021/07/24 11:58:07;;;;;;;15.05;8.32;;;31.60;89.30;;;;;;5046112;28;20110;-78
2021/07/24 12:00:38;;;;;;;11.95;8.43;;;32.30;87.10;;;;;;5048656;28;20118;-75
2021/07/24 12:03:16;;;;;;;16.92;8.63;;;32.70;82.90;;;;;;5051544;28;20083;-78
2021/07/24 12:05:44;;;;;;;10.88;8.23;;;33.10;82.20;;;;;;5052056;28;20055;-76
2021/07/24 12:08:12;;;;;;;12.40;8.05;;;33.30;82.80;;;;;;5054721;28;20045;-77
2021/07/24 12:10:43;;;;;;;13.55;8.48;;;33.00;80.20;;;;;;5053623;28;20152;-75
2021/07/24 12:13:11;;;;;;;12.95;7.80;;;32.80;80.00;;;;;;5053501;28;20448;-78
2021/07/24 12:16:05;;;;;;;11.85;8.25;;;33.70;81.10;;;;;;5055350;28;20048;-75
2021/07/24 12:18:40;;;;;;;13.98;8.85;;;34.20;77.00;;;;;;5054007;28;20048;-77
2021/07/24 12:21:13;;;;;;;12.10;8.38;;;33.80;76.30;;;;;;5052350;28;20490;-76
2021/07/24 12:23:44;;;;;;;13.40;8.55;;;34.40;76.40;;;;;;5052242;28;20076;-77
2021/07/24 12:26:13;;;;;;;13.23;8.25;;;34.20;77.90;;;;;;5050354;28;20055;-78
2021/07/24 12:28:41;;;;;;;15.43;7.70;;;33.70;76.90;;;;;;5050322;28;20044;-75
2021/07/24 12:31:28;;;;;;;12.32;8.38;;;33.70;78.20;;;;;;5051963;28;20421;-76
2021/07/24 12:33:57;;;;;;;12.05;8.48;;;33.90;76.90;;;;;;5052830;28;20046;-76
2021/07/24 12:36:26;;;;;;;12.38;8.60;;;34.10;76.10;;;;;;5048100;28;20114;-76
2021/07/24 12:38:54;;;;;;;11.95;8.15;;;33.60;77.10;;;;;;5048511;28;20053;-76
2021/07/24 12:41:32;;;;;;;12.60;8.50;;;33.00;75.80;;;;;;5049810;28;20076;-78